sensor_id;sensor_type;location;lat;lon;timestamp;P1;durP1;ratioP1;P2;durP2;ratioP2
43835;SDS011;39345;43.964;25.340;2023-04-19T00:02:14;12.60;;;7.85;;
43835;SDS011;39345;43.964;25.340;2023-04-19T00:04:42;12.02;;;8.32;;
43835;SDS011;39345;43.964;25.340;2023-04-19T00:07:10;10.88;;;7.13;;
43835;SDS011;39345;43.964;25.340;2023-04-19T00:09:38;11.90;;;7.70;;
43835;SDS011;39345;43.964;25.340;2023-04-19T00:12:06;16.85;;;8.65;;
43835;SDS011;39345;43.964;25.340;2023-04-19T00:14:33;12.93;;;7.60;;
43835;SDS011;39345;43.964;25.340;2023-04-19T00:17:01;11.05;;;8.43;;
43835;SDS011;39345;43.964;25.340;2023-04-19T00:19:29;15.27;;;9.23;;
43835;SDS011;39345;43.964;25.340;2023-04-19T00:21:56;16.13;;;9.60;;
43835;SDS011;39345;43.964;25.340;2023-04-19T00:24:24;14.50;;;8.85;;
43835;SDS011;39345;43.964;25.340;2023-04-19T00:26:51;15.52;;;9.50;;
43835;SDS011;39345;43.964;25.340;2023-04-19T00:29:19;12.50;;;9.13;;
43835;SDS011;39345;43.964;25.340;2023-04-19T00:31:46;17.90;;;9.10;;
43835;SDS011;39345;43.964;25.340;2023-04-19T00:34:13;14.23;;;8.85;;
43835;SDS011;39345;43.964;25.340;2023-04-19T00:36:41;15.73;;;9.68;;
43835;SDS011;39345;43.964;25.340;2023-04-19T00:39:09;14.38;;;9.35;;
43835;SDS011;39345;43.964;25.340;2023-04-19T00:41:37;13.43;;;9.32;;
43835;SDS011;39345;43.964;25.340;2023-04-19T00:44:04;16.17;;;10.23;;
43835;SDS011;39345;43.964;25.340;2023-04-19T00:46:32;20.60;;;10.70;;
43835;SDS011;39345;43.964;25.340;2023-04-19T00:48:59;17.25;;;9.80;;
43835;SDS011;39345;43.964;25.340;2023-04-19T00:51:27;18.00;;;10.18;;
43835;SDS011;39345;43.964;25.340;2023-04-19T00:53:55;16.60;;;9.68;;
43835;SDS011;39345;43.964;25.340;2023-04-19T00:56:22;15.65;;;10.05;;
43835;SDS011;39345;43.964;25.340;2023-04-19T00:58:52;18.17;;;10.50;;
43835;SDS011;39345;43.964;25.340;2023-04-19T01:01:20;15.77;;;10.43;;
43835;SDS011;39345;43.964;25.340;2023-04-19T01:03:49;17.60;;;10.43;;
43835;SDS011;39345;43.964;25.340;2023-04-19T01:06:19;16.77;;;11.15;;
43835;SDS011;39345;43.964;25.340;2023-04-19T01:08:46;16.65;;;10.35;;
43835;SDS011;39345;43.964;25.340;2023-04-19T01:11:14;16.98;;;10.45;;
43835;SDS011;39345;43.964;25.340;2023-04-19T01:13:43;17.17;;;10.60;;
43835;SDS011;39345;43.964;25.340;2023-04-19T01:16:11;16.95;;;10.65;;
43835;SDS011;39345;43.964;25.340;2023-04-19T01:18:38;16.05;;;10.30;;
43835;SDS011;39345;43.964;25.340;2023-04-19T01:21:06;17.98;;;10.93;;
43835;SDS011;39345;43.964;25.340;2023-04-19T01:23:34;18.50;;;11.02;;
43835;SDS011;39345;43.964;25.340;2023-04-19T01:26:04;15.05;;;10.45;;
43835;SDS011;39345;43.964;25.340;2023-04-19T01:28:31;15.55;;;10.52;;
43835;SDS011;39345;43.964;25.340;2023-04-19T01:30:59;18.75;;;10.63;;
43835;SDS011;39345;43.964;25.340;2023-04-19T01:33:26;17.23;;;10.98;;
43835;SDS011;39345;43.964;25.340;2023-04-19T01:35:54;15.00;;;10.10;;
43835;SDS011;39345;43.964;25.340;2023-04-19T01:38:21;16.30;;;10.20;;
43835;SDS011;39345;43.964;25.340;2023-04-19T01:40:49;15.63;;;9.77;;
43835;SDS011;39345;43.964;25.340;2023-04-19T01:43:16;17.40;;;10.02;;
43835;SDS011;39345;43.964;25.340;2023-04-19T01:45:44;18.90;;;10.20;;
43835;SDS011;39345;43.964;25.340;2023-04-19T01:48:11;15.15;;;10.63;;
43835;SDS011;39345;43.964;25.340;2023-04-19T01:50:39;16.25;;;10.32;;
43835;SDS011;39345;43.964;25.340;2023-04-19T01:53:06;18.02;;;10.07;;
43835;SDS011;39345;43.964;25.340;2023-04-19T01:55:34;15.68;;;10.23;;
43835;SDS011;39345;43.964;25.340;2023-04-19T01:58:01;14.30;;;10.15;;
43835;SDS011;39345;43.964;25.340;2023-04-19T02:00:29;16.05;;;10.98;;
43835;SDS011;39345;43.964;25.340;2023-04-19T02:02:56;17.80;;;10.52;;
43835;SDS011;39345;43.964;25.340;2023-04-19T02:05:24;15.95;;;10.80;;
43835;SDS011;39345;43.964;25.340;2023-04-19T02:07:52;15.25;;;11.85;;
43835;SDS011;39345;43.964;25.340;2023-04-19T02:10:20;18.55;;;11.65;;
43835;SDS011;39345;43.964;25.340;2023-04-19T02:12:47;16.15;;;11.52;;
43835;SDS011;39345;43.964;25.340;2023-04-19T02:15:14;19.35;;;11.90;;
43835;SDS011;39345;43.964;25.340;2023-04-19T02:17:42;19.52;;;13.45;;
43835;SDS011;39345;43.964;25.340;2023-04-19T02:20:12;20.75;;;12.15;;
43835;SDS011;39345;43.964;25.340;2023-04-19T02:22:39;20.85;;;12.13;;
43835;SDS011;39345;43.964;25.340;2023-04-19T02:25:09;19.92;;;12.60;;
43835;SDS011;39345;43.964;25.340;2023-04-19T02:27:37;17.63;;;12.50;;
43835;SDS011;39345;43.964;25.340;2023-04-19T02:30:04;15.90;;;11.88;;
43835;SDS011;39345;43.964;25.340;2023-04-19T02:32:32;18.88;;;13.15;;
43835;SDS011;39345;43.964;25.340;2023-04-19T02:35:00;20.23;;;13.50;;
43835;SDS011;39345;43.964;25.340;2023-04-19T02:37:28;18.58;;;13.48;;
43835;SDS011;39345;43.964;25.340;2023-04-19T02:39:55;22.42;;;13.48;;
43835;SDS011;39345;43.964;25.340;2023-04-19T02:42:23;22.65;;;13.82;;
43835;SDS011;39345;43.964;25.340;2023-04-19T02:44:52;21.92;;;14.45;;
43835;SDS011;39345;43.964;25.340;2023-04-19T02:47:22;19.98;;;14.27;;
43835;SDS011;39345;43.964;25.340;2023-04-19T02:49:50;18.23;;;13.63;;
43835;SDS011;39345;43.964;25.340;2023-04-19T02:52:18;23.10;;;14.32;;
43835;SDS011;39345;43.964;25.340;2023-04-19T02:54:46;20.42;;;13.30;;
43835;SDS011;39345;43.964;25.340;2023-04-19T02:57:14;21.10;;;12.57;;
43835;SDS011;39345;43.964;25.340;2023-04-19T02:59:43;18.17;;;12.48;;
43835;SDS011;39345;43.964;25.340;2023-04-19T03:02:10;18.98;;;11.77;;
43835;SDS011;39345;43.964;25.340;2023-04-19T03:04:38;15.00;;;11.32;;
43835;SDS011;39345;43.964;25.340;2023-04-19T03:07:07;16.85;;;11.25;;
43835;SDS011;39345;43.964;25.340;2023-04-19T03:09:35;17.70;;;11.63;;
43835;SDS011;39345;43.964;25.340;2023-04-19T03:12:03;17.13;;;11.65;;
43835;SDS011;39345;43.964;25.340;2023-04-19T03:14:31;17.88;;;12.20;;
43835;SDS011;39345;43.964;25.340;2023-04-19T03:17:02;18.05;;;12.13;;
43835;SDS011;39345;43.964;25.340;2023-04-19T03:19:31;16.33;;;11.30;;
43835;SDS011;39345;43.964;25.340;2023-04-19T03:21:59;16.33;;;11.55;;
43835;SDS011;39345;43.964;25.340;2023-04-19T03:24:29;15.07;;;11.48;;
43835;SDS011;39345;43.964;25.340;2023-04-19T03:27:02;15.32;;;11.55;;
43835;SDS011;39345;43.964;25.340;2023-04-19T03:29:30;17.27;;;12.73;;
43835;SDS011;39345;43.964;25.340;2023-04-19T03:32:07;16.63;;;12.45;;
43835;SDS011;39345;43.964;25.340;2023-04-19T03:34:35;17.17;;;13.10;;
43835;SDS011;39345;43.964;25.340;2023-04-19T03:37:02;19.88;;;13.68;;
43835;SDS011;39345;43.964;25.340;2023-04-19T03:39:31;19.17;;;13.93;;
43835;SDS011;39345;43.964;25.340;2023-04-19T03:42:02;21.70;;;13.90;;
43835;SDS011;39345;43.964;25.340;2023-04-19T03:44:58;21.35;;;13.50;;
43835;SDS011;39345;43.964;25.340;2023-04-19T03:47:28;19.27;;;13.25;;
43835;SDS011;39345;43.964;25.340;2023-04-19T03:49:58;21.83;;;13.75;;
43835;SDS011;39345;43.964;25.340;2023-04-19T03:52:27;20.00;;;14.30;;
43835;SDS011;39345;43.964;25.340;2023-04-19T03:54:54;21.00;;;14.95;;
43835;SDS011;39345;43.964;25.340;2023-04-19T03:57:31;19.95;;;14.18;;
43835;SDS011;39345;43.964;25.340;2023-04-19T04:00:03;22.30;;;15.65;;
43835;SDS011;39345;43.964;25.340;2023-04-19T04:02:39;24.23;;;15.55;;
43835;SDS011;39345;43.964;25.340;2023-04-19T04:05:08;25.90;;;15.60;;
43835;SDS011;39345;43.964;25.340;2023-04-19T04:07:39;22.20;;;15.15;;
43835;SDS011;39345;43.964;25.340;2023-04-19T04:10:07;20.13;;;14.85;;
43835;SDS011;39345;43.964;25.340;2023-04-19T04:12:40;20.80;;;14.90;;
43835;SDS011;39345;43.964;25.340;2023-04-19T04:15:11;22.50;;;15.55;;
43835;SDS011;39345;43.964;25.340;2023-04-19T04:17:45;24.13;;;16.10;;
43835;SDS011;39345;43.964;25.340;2023-04-19T04:20:12;21.65;;;15.27;;
43835;SDS011;39345;43.964;25.340;2023-04-19T04:22:42;23.80;;;15.73;;
43835;SDS011;39345;43.964;25.340;2023-04-19T04:25:14;22.98;;;16.40;;
43835;SDS011;39345;43.964;25.340;2023-04-19T04:27:42;22.10;;;15.82;;
43835;SDS011;39345;43.964;25.340;2023-04-19T04:30:13;27.15;;;15.52;;
43835;SDS011;39345;43.964;25.340;2023-04-19T04:32:42;25.83;;;15.00;;
43835;SDS011;39345;43.964;25.340;2023-04-19T04:35:10;22.75;;;13.70;;
43835;SDS011;39345;43.964;25.340;2023-04-19T04:37:47;18.10;;;13.18;;
43835;SDS011;39345;43.964;25.340;2023-04-19T04:40:15;17.77;;;12.60;;
43835;SDS011;39345;43.964;25.340;2023-04-19T04:42:42;18.67;;;12.60;;
43835;SDS011;39345;43.964;25.340;2023-04-19T04:45:11;19.75;;;13.57;;
43835;SDS011;39345;43.964;25.340;2023-04-19T04:47:42;20.92;;;13.00;;
43835;SDS011;39345;43.964;25.340;2023-04-19T04:50:12;17.48;;;12.88;;
43835;SDS011;39345;43.964;25.340;2023-04-19T04:52:40;16.23;;;11.57;;
43835;SDS011;39345;43.964;25.340;2023-04-19T04:55:12;18.20;;;11.25;;
43835;SDS011;39345;43.964;25.340;2023-04-19T04:57:42;17.08;;;11.40;;
43835;SDS011;39345;43.964;25.340;2023-04-19T05:00:33;17.13;;;10.77;;
43835;SDS011;39345;43.964;25.340;2023-04-19T05:03:05;16.80;;;12.25;;
43835;SDS011;39345;43.964;25.340;2023-04-19T05:05:37;15.02;;;11.07;;
43835;SDS011;39345;43.964;25.340;2023-04-19T05:08:05;16.42;;;10.63;;
43835;SDS011;39345;43.964;25.340;2023-04-19T05:10:33;15.25;;;10.82;;
43835;SDS011;39345;43.964;25.340;2023-04-19T05:13:01;20.02;;;11.13;;
43835;SDS011;39345;43.964;25.340;2023-04-19T05:15:29;17.90;;;11.85;;
43835;SDS011;39345;43.964;25.340;2023-04-19T05:17:57;15.68;;;9.65;;
43835;SDS011;39345;43.964;25.340;2023-04-19T05:20:25;15.00;;;8.38;;
43835;SDS011;39345;43.964;25.340;2023-04-19T05:23:13;13.05;;;7.93;;
43835;SDS011;39345;43.964;25.340;2023-04-19T05:25:41;11.20;;;7.78;;
43835;SDS011;39345;43.964;25.340;2023-04-19T05:28:09;13.32;;;8.35;;
43835;SDS011;39345;43.964;25.340;2023-04-19T05:30:44;12.02;;;8.57;;
43835;SDS011;39345;43.964;25.340;2023-04-19T05:33:12;9.43;;;6.70;;
43835;SDS011;39345;43.964;25.340;2023-04-19T05:35:41;9.68;;;7.40;;
43835;SDS011;39345;43.964;25.340;2023-04-19T05:38:08;12.48;;;7.88;;
43835;SDS011;39345;43.964;25.340;2023-04-19T05:40:35;15.38;;;9.38;;
43835;SDS011;39345;43.964;25.340;2023-04-19T05:43:04;11.90;;;8.07;;
43835;SDS011;39345;43.964;25.340;2023-04-19T05:45:31;10.55;;;8.02;;
43835;SDS011;39345;43.964;25.340;2023-04-19T05:47:59;15.85;;;10.80;;
43835;SDS011;39345;43.964;25.340;2023-04-19T05:50:51;13.38;;;10.10;;
43835;SDS011;39345;43.964;25.340;2023-04-19T05:53:52;13.25;;;8.23;;
43835;SDS011;39345;43.964;25.340;2023-04-19T05:56:23;11.80;;;7.97;;
43835;SDS011;39345;43.964;25.340;2023-04-19T05:58:51;9.55;;;7.70;;
43835;SDS011;39345;43.964;25.340;2023-04-19T06:01:21;11.45;;;7.43;;
43835;SDS011;39345;43.964;25.340;2023-04-19T06:03:49;11.98;;;7.10;;
43835;SDS011;39345;43.964;25.340;2023-04-19T06:06:23;11.98;;;7.05;;
43835;SDS011;39345;43.964;25.340;2023-04-19T06:08:51;11.35;;;7.80;;
43835;SDS011;39345;43.964;25.340;2023-04-19T06:11:20;12.63;;;7.20;;
43835;SDS011;39345;43.964;25.340;2023-04-19T06:14:04;16.13;;;9.57;;
43835;SDS011;39345;43.964;25.340;2023-04-19T06:16:31;12.05;;;8.00;;
43835;SDS011;39345;43.964;25.340;2023-04-19T06:18:59;13.40;;;8.57;;
43835;SDS011;39345;43.964;25.340;2023-04-19T06:21:29;8.18;;;6.97;;
43835;SDS011;39345;43.964;25.340;2023-04-19T06:23:57;9.30;;;6.60;;
43835;SDS011;39345;43.964;25.340;2023-04-19T06:26:24;12.27;;;6.60;;
43835;SDS011;39345;43.964;25.340;2023-04-19T06:28:52;8.48;;;6.45;;
43835;SDS011;39345;43.964;25.340;2023-04-19T06:31:19;9.77;;;6.63;;
43835;SDS011;39345;43.964;25.340;2023-04-19T06:33:47;8.63;;;6.43;;
43835;SDS011;39345;43.964;25.340;2023-04-19T06:36:14;10.20;;;7.03;;
43835;SDS011;39345;43.964;25.340;2023-04-19T06:38:42;10.35;;;6.60;;
43835;SDS011;39345;43.964;25.340;2023-04-19T06:41:12;10.73;;;6.97;;
43835;SDS011;39345;43.964;25.340;2023-04-19T06:43:40;10.15;;;7.25;;
43835;SDS011;39345;43.964;25.340;2023-04-19T06:46:08;9.00;;;7.07;;
43835;SDS011;39345;43.964;25.340;2023-04-19T06:48:36;12.95;;;7.35;;
43835;SDS011;39345;43.964;25.340;2023-04-19T06:51:04;9.38;;;7.13;;
43835;SDS011;39345;43.964;25.340;2023-04-19T06:53:31;8.20;;;6.88;;
43835;SDS011;39345;43.964;25.340;2023-04-19T06:56:00;9.00;;;6.82;;
43835;SDS011;39345;43.964;25.340;2023-04-19T06:58:29;10.77;;;7.00;;
43835;SDS011;39345;43.964;25.340;2023-04-19T07:01:00;10.20;;;7.25;;
43835;SDS011;39345;43.964;25.340;2023-04-19T07:03:28;9.80;;;6.72;;
43835;SDS011;39345;43.964;25.340;2023-04-19T07:05:56;10.77;;;6.88;;
43835;SDS011;39345;43.964;25.340;2023-04-19T07:08:24;8.65;;;6.38;;
43835;SDS011;39345;43.964;25.340;2023-04-19T07:11:04;9.85;;;6.03;;
43835;SDS011;39345;43.964;25.340;2023-04-19T07:13:31;9.98;;;6.57;;
43835;SDS011;39345;43.964;25.340;2023-04-19T07:15:59;8.25;;;6.22;;
43835;SDS011;39345;43.964;25.340;2023-04-19T07:18:29;9.73;;;5.63;;
43835;SDS011;39345;43.964;25.340;2023-04-19T07:20:57;10.65;;;6.03;;
43835;SDS011;39345;43.964;25.340;2023-04-19T07:23:24;10.18;;;5.68;;
43835;SDS011;39345;43.964;25.340;2023-04-19T07:25:52;11.15;;;5.80;;
43835;SDS011;39345;43.964;25.340;2023-04-19T07:28:20;8.05;;;5.60;;
43835;SDS011;39345;43.964;25.340;2023-04-19T07:30:47;18.73;;;6.38;;
43835;SDS011;39345;43.964;25.340;2023-04-19T07:33:15;14.40;;;5.55;;
43835;SDS011;39345;43.964;25.340;2023-04-19T07:35:42;7.43;;;4.47;;
43835;SDS011;39345;43.964;25.340;2023-04-19T07:38:10;7.60;;;4.30;;
43835;SDS011;39345;43.964;25.340;2023-04-19T07:40:38;7.53;;;4.40;;
43835;SDS011;39345;43.964;25.340;2023-04-19T07:43:05;7.60;;;4.32;;
43835;SDS011;39345;43.964;25.340;2023-04-19T07:45:34;6.80;;;4.10;;
43835;SDS011;39345;43.964;25.340;2023-04-19T07:48:01;9.55;;;4.32;;
43835;SDS011;39345;43.964;25.340;2023-04-19T07:50:29;4.20;;;3.40;;
43835;SDS011;39345;43.964;25.340;2023-04-19T07:52:56;5.40;;;3.50;;
43835;SDS011;39345;43.964;25.340;2023-04-19T07:55:24;5.68;;;3.80;;
43835;SDS011;39345;43.964;25.340;2023-04-19T07:57:51;6.05;;;3.85;;
43835;SDS011;39345;43.964;25.340;2023-04-19T08:00:19;7.38;;;3.88;;
43835;SDS011;39345;43.964;25.340;2023-04-19T08:02:49;6.15;;;3.58;;
43835;SDS011;39345;43.964;25.340;2023-04-19T08:05:17;5.57;;;3.85;;
43835;SDS011;39345;43.964;25.340;2023-04-19T08:07:45;6.65;;;3.97;;
43835;SDS011;39345;43.964;25.340;2023-04-19T08:10:13;6.03;;;4.53;;
43835;SDS011;39345;43.964;25.340;2023-04-19T08:12:41;4.90;;;3.50;;
43835;SDS011;39345;43.964;25.340;2023-04-19T08:15:28;6.53;;;4.50;;
43835;SDS011;39345;43.964;25.340;2023-04-19T08:17:59;10.85;;;4.07;;
43835;SDS011;39345;43.964;25.340;2023-04-19T08:20:27;5.18;;;3.30;;
43835;SDS011;39345;43.964;25.340;2023-04-19T08:22:54;6.43;;;3.63;;
43835;SDS011;39345;43.964;25.340;2023-04-19T08:25:23;5.57;;;3.13;;
43835;SDS011;39345;43.964;25.340;2023-04-19T08:27:54;5.72;;;3.85;;
43835;SDS011;39345;43.964;25.340;2023-04-19T08:30:22;7.75;;;3.42;;
43835;SDS011;39345;43.964;25.340;2023-04-19T08:32:50;5.00;;;4.05;;
43835;SDS011;39345;43.964;25.340;2023-04-19T08:35:21;7.28;;;4.00;;
43835;SDS011;39345;43.964;25.340;2023-04-19T08:37:50;8.30;;;4.40;;
43835;SDS011;39345;43.964;25.340;2023-04-19T08:40:18;6.47;;;3.97;;
43835;SDS011;39345;43.964;25.340;2023-04-19T08:42:45;6.35;;;3.92;;
43835;SDS011;39345;43.964;25.340;2023-04-19T08:45:14;5.70;;;4.00;;
43835;SDS011;39345;43.964;25.340;2023-04-19T08:47:55;7.50;;;4.07;;
43835;SDS011;39345;43.964;25.340;2023-04-19T08:50:27;7.50;;;4.22;;
43835;SDS011;39345;43.964;25.340;2023-04-19T08:52:58;6.15;;;3.90;;
43835;SDS011;39345;43.964;25.340;2023-04-19T08:55:32;5.85;;;3.65;;
43835;SDS011;39345;43.964;25.340;2023-04-19T08:57:59;5.15;;;4.00;;
43835;SDS011;39345;43.964;25.340;2023-04-19T09:00:30;6.57;;;4.10;;
43835;SDS011;39345;43.964;25.340;2023-04-19T09:02:58;7.30;;;4.30;;
43835;SDS011;39345;43.964;25.340;2023-04-19T09:05:26;5.53;;;4.05;;
43835;SDS011;39345;43.964;25.340;2023-04-19T09:07:54;9.07;;;4.20;;
43835;SDS011;39345;43.964;25.340;2023-04-19T09:10:22;6.65;;;3.85;;
43835;SDS011;39345;43.964;25.340;2023-04-19T09:13:01;7.53;;;3.33;;
43835;SDS011;39345;43.964;25.340;2023-04-19T09:15:38;6.82;;;3.55;;
43835;SDS011;39345;43.964;25.340;2023-04-19T09:18:07;6.28;;;3.13;;
43835;SDS011;39345;43.964;25.340;2023-04-19T09:20:36;7.70;;;3.95;;
43835;SDS011;39345;43.964;25.340;2023-04-19T09:23:04;5.13;;;3.50;;
43835;SDS011;39345;43.964;25.340;2023-04-19T09:25:32;5.18;;;3.67;;
43835;SDS011;39345;43.964;25.340;2023-04-19T09:28:20;7.38;;;3.78;;
43835;SDS011;39345;43.964;25.340;2023-04-19T09:30:48;9.20;;;4.10;;
43835;SDS011;39345;43.964;25.340;2023-04-19T09:33:53;8.38;;;4.20;;
43835;SDS011;39345;43.964;25.340;2023-04-19T09:36:25;4.45;;;3.30;;
43835;SDS011;39345;43.964;25.340;2023-04-19T09:38:53;5.43;;;4.00;;
43835;SDS011;39345;43.964;25.340;2023-04-19T09:41:21;8.02;;;3.35;;
43835;SDS011;39345;43.964;25.340;2023-04-19T09:43:48;5.95;;;3.10;;
43835;SDS011;39345;43.964;25.340;2023-04-19T09:46:36;7.40;;;3.65;;
43835;SDS011;39345;43.964;25.340;2023-04-19T09:51:56;6.65;;;3.38;;
43835;SDS011;39345;43.964;25.340;2023-04-19T09:54:24;7.13;;;3.00;;
43835;SDS011;39345;43.964;25.340;2023-04-19T09:56:57;5.77;;;3.13;;
43835;SDS011;39345;43.964;25.340;2023-04-19T09:59:27;6.90;;;3.65;;
43835;SDS011;39345;43.964;25.340;2023-04-19T10:01:54;8.07;;;3.35;;
43835;SDS011;39345;43.964;25.340;2023-04-19T10:04:22;9.02;;;3.70;;
43835;SDS011;39345;43.964;25.340;2023-04-19T10:07:10;5.50;;;3.47;;
43835;SDS011;39345;43.964;25.340;2023-04-19T10:09:40;6.63;;;3.38;;
43835;SDS011;39345;43.964;25.340;2023-04-19T10:12:20;5.05;;;3.30;;
43835;SDS011;39345;43.964;25.340;2023-04-19T10:15:09;5.40;;;3.80;;
43835;SDS011;39345;43.964;25.340;2023-04-19T10:17:37;5.07;;;3.30;;
43835;SDS011;39345;43.964;25.340;2023-04-19T10:20:06;6.78;;;3.70;;
43835;SDS011;39345;43.964;25.340;2023-04-19T10:22:36;6.18;;;3.33;;
43835;SDS011;39345;43.964;25.340;2023-04-19T10:25:08;12.75;;;3.70;;
43835;SDS011;39345;43.964;25.340;2023-04-19T10:27:36;9.48;;;3.70;;
43835;SDS011;39345;43.964;25.340;2023-04-19T10:30:04;5.82;;;3.30;;
43835;SDS011;39345;43.964;25.340;2023-04-19T10:32:41;6.57;;;3.70;;
43835;SDS011;39345;43.964;25.340;2023-04-19T10:35:11;7.32;;;3.88;;
43835;SDS011;39345;43.964;25.340;2023-04-19T10:43:15;8.00;;;4.03;;
43835;SDS011;39345;43.964;25.340;2023-04-19T10:45:43;6.35;;;3.45;;
43835;SDS011;39345;43.964;25.340;2023-04-19T10:51:13;8.95;;;4.05;;
43835;SDS011;39345;43.964;25.340;2023-04-19T10:53:45;8.63;;;4.18;;
43835;SDS011;39345;43.964;25.340;2023-04-19T10:56:13;10.25;;;4.35;;
43835;SDS011;39345;43.964;25.340;2023-04-19T10:59:27;7.38;;;3.67;;
43835;SDS011;39345;43.964;25.340;2023-04-19T11:01:38;7.60;;;3.75;;
43835;SDS011;39345;43.964;25.340;2023-04-19T11:06:36;6.55;;;4.25;;
43835;SDS011;39345;43.964;25.340;2023-04-19T11:09:04;6.60;;;3.67;;
43835;SDS011;39345;43.964;25.340;2023-04-19T11:11:33;7.80;;;3.80;;
43835;SDS011;39345;43.964;25.340;2023-04-19T11:14:04;8.18;;;3.80;;
43835;SDS011;39345;43.964;25.340;2023-04-19T11:16:34;10.85;;;4.13;;
43835;SDS011;39345;43.964;25.340;2023-04-19T11:19:18;6.43;;;4.30;;
43835;SDS011;39345;43.964;25.340;2023-04-19T11:21:46;8.50;;;4.22;;
43835;SDS011;39345;43.964;25.340;2023-04-19T11:24:14;11.65;;;4.47;;
43835;SDS011;39345;43.964;25.340;2023-04-19T11:26:44;9.15;;;4.55;;
43835;SDS011;39345;43.964;25.340;2023-04-19T11:29:11;10.90;;;4.80;;
43835;SDS011;39345;43.964;25.340;2023-04-19T11:31:40;9.40;;;4.50;;
43835;SDS011;39345;43.964;25.340;2023-04-19T11:34:10;8.23;;;4.28;;
43835;SDS011;39345;43.964;25.340;2023-04-19T11:36:50;7.78;;;4.10;;
43835;SDS011;39345;43.964;25.340;2023-04-19T11:39:18;7.22;;;4.63;;
43835;SDS011;39345;43.964;25.340;2023-04-19T11:41:46;10.65;;;4.97;;
43835;SDS011;39345;43.964;25.340;2023-04-19T11:44:17;7.88;;;4.43;;
43835;SDS011;39345;43.964;25.340;2023-04-19T11:47:02;11.70;;;5.07;;
43835;SDS011;39345;43.964;25.340;2023-04-19T11:49:31;7.30;;;4.40;;
43835;SDS011;39345;43.964;25.340;2023-04-19T11:52:00;9.80;;;4.82;;
43835;SDS011;39345;43.964;25.340;2023-04-19T11:54:31;9.30;;;4.15;;
43835;SDS011;39345;43.964;25.340;2023-04-19T11:57:02;8.05;;;4.72;;
43835;SDS011;39345;43.964;25.340;2023-04-19T11:59:31;9.23;;;4.68;;
43835;SDS011;39345;43.964;25.340;2023-04-19T12:02:08;9.88;;;5.78;;
43835;SDS011;39345;43.964;25.340;2023-04-19T12:04:37;8.63;;;4.90;;
43835;SDS011;39345;43.964;25.340;2023-04-19T12:07:05;8.75;;;4.22;;
43835;SDS011;39345;43.964;25.340;2023-04-19T12:09:33;7.07;;;4.15;;
43835;SDS011;39345;43.964;25.340;2023-04-19T12:12:02;8.52;;;3.85;;
43835;SDS011;39345;43.964;25.340;2023-04-19T12:14:29;8.50;;;4.80;;
43835;SDS011;39345;43.964;25.340;2023-04-19T12:17:10;8.95;;;4.38;;
43835;SDS011;39345;43.964;25.340;2023-04-19T12:19:48;6.35;;;3.85;;
43835;SDS011;39345;43.964;25.340;2023-04-19T12:22:17;9.65;;;3.90;;
43835;SDS011;39345;43.964;25.340;2023-04-19T12:24:46;11.80;;;4.38;;
43835;SDS011;39345;43.964;25.340;2023-04-19T12:27:16;13.25;;;5.40;;
43835;SDS011;39345;43.964;25.340;2023-04-19T12:29:43;7.32;;;4.32;;
43835;SDS011;39345;43.964;25.340;2023-04-19T12:32:11;7.72;;;3.97;;
43835;SDS011;39345;43.964;25.340;2023-04-19T12:34:41;6.40;;;3.38;;
43835;SDS011;39345;43.964;25.340;2023-04-19T12:37:08;8.68;;;4.25;;
43835;SDS011;39345;43.964;25.340;2023-04-19T12:39:36;7.88;;;3.70;;
43835;SDS011;39345;43.964;25.340;2023-04-19T12:42:03;9.20;;;4.57;;
43835;SDS011;39345;43.964;25.340;2023-04-19T12:44:31;9.23;;;3.30;;
43835;SDS011;39345;43.964;25.340;2023-04-19T12:46:59;8.45;;;4.10;;
43835;SDS011;39345;43.964;25.340;2023-04-19T12:49:26;8.35;;;4.07;;
43835;SDS011;39345;43.964;25.340;2023-04-19T12:51:53;7.30;;;3.70;;
43835;SDS011;39345;43.964;25.340;2023-04-19T12:54:23;12.13;;;3.80;;
43835;SDS011;39345;43.964;25.340;2023-04-19T12:56:51;6.38;;;3.75;;
43835;SDS011;39345;43.964;25.340;2023-04-19T12:59:18;8.40;;;4.20;;
43835;SDS011;39345;43.964;25.340;2023-04-19T13:01:47;9.13;;;3.67;;
43835;SDS011;39345;43.964;25.340;2023-04-19T13:04:15;8.27;;;3.78;;
43835;SDS011;39345;43.964;25.340;2023-04-19T13:06:43;5.55;;;3.67;;
43835;SDS011;39345;43.964;25.340;2023-04-19T13:09:11;8.27;;;3.63;;
43835;SDS011;39345;43.964;25.340;2023-04-19T13:11:40;6.45;;;4.05;;
43835;SDS011;39345;43.964;25.340;2023-04-19T13:14:08;8.77;;;4.00;;
43835;SDS011;39345;43.964;25.340;2023-04-19T13:16:35;8.57;;;3.80;;
43835;SDS011;39345;43.964;25.340;2023-04-19T13:19:03;8.77;;;4.32;;
43835;SDS011;39345;43.964;25.340;2023-04-19T13:21:30;9.25;;;3.92;;
43835;SDS011;39345;43.964;25.340;2023-04-19T13:23:58;8.30;;;3.38;;
43835;SDS011;39345;43.964;25.340;2023-04-19T13:26:25;8.50;;;3.55;;
43835;SDS011;39345;43.964;25.340;2023-04-19T13:28:53;4.95;;;3.75;;
43835;SDS011;39345;43.964;25.340;2023-04-19T13:31:21;8.23;;;3.97;;
43835;SDS011;39345;43.964;25.340;2023-04-19T13:33:49;9.70;;;4.32;;
43835;SDS011;39345;43.964;25.340;2023-04-19T13:36:16;11.25;;;4.78;;
43835;SDS011;39345;43.964;25.340;2023-04-19T13:38:44;8.60;;;4.00;;
43835;SDS011;39345;43.964;25.340;2023-04-19T13:41:11;6.80;;;3.83;;
43835;SDS011;39345;43.964;25.340;2023-04-19T13:43:39;11.40;;;4.70;;
43835;SDS011;39345;43.964;25.340;2023-04-19T13:46:06;9.68;;;4.60;;
43835;SDS011;39345;43.964;25.340;2023-04-19T13:48:34;6.88;;;3.70;;
43835;SDS011;39345;43.964;25.340;2023-04-19T13:51:01;8.25;;;4.22;;
43835;SDS011;39345;43.964;25.340;2023-04-19T13:53:29;8.43;;;4.43;;
43835;SDS011;39345;43.964;25.340;2023-04-19T13:55:56;7.90;;;4.20;;
43835;SDS011;39345;43.964;25.340;2023-04-19T13:58:24;8.82;;;4.40;;
43835;SDS011;39345;43.964;25.340;2023-04-19T14:00:52;6.07;;;4.50;;
43835;SDS011;39345;43.964;25.340;2023-04-19T14:03:20;9.07;;;4.70;;
43835;SDS011;39345;43.964;25.340;2023-04-19T14:05:48;13.77;;;4.90;;
43835;SDS011;39345;43.964;25.340;2023-04-19T14:08:16;13.85;;;4.82;;
43835;SDS011;39345;43.964;25.340;2023-04-19T14:10:43;8.73;;;4.78;;
43835;SDS011;39345;43.964;25.340;2023-04-19T14:13:12;7.50;;;3.90;;
43835;SDS011;39345;43.964;25.340;2023-04-19T14:15:39;6.20;;;3.80;;
43835;SDS011;39345;43.964;25.340;2023-04-19T14:18:07;6.57;;;3.72;;
43835;SDS011;39345;43.964;25.340;2023-04-19T14:20:34;8.30;;;4.20;;
43835;SDS011;39345;43.964;25.340;2023-04-19T14:23:02;8.52;;;4.60;;
43835;SDS011;39345;43.964;25.340;2023-04-19T14:25:29;7.88;;;4.07;;
43835;SDS011;39345;43.964;25.340;2023-04-19T14:27:57;8.07;;;4.70;;
43835;SDS011;39345;43.964;25.340;2023-04-19T14:30:25;7.80;;;4.22;;
43835;SDS011;39345;43.964;25.340;2023-04-19T14:32:56;5.97;;;4.38;;
43835;SDS011;39345;43.964;25.340;2023-04-19T14:35:23;7.30;;;4.47;;
43835;SDS011;39345;43.964;25.340;2023-04-19T14:37:51;7.55;;;5.13;;
43835;SDS011;39345;43.964;25.340;2023-04-19T14:40:18;10.32;;;4.90;;
43835;SDS011;39345;43.964;25.340;2023-04-19T14:42:46;9.95;;;4.78;;
43835;SDS011;39345;43.964;25.340;2023-04-19T14:45:13;12.45;;;5.07;;
43835;SDS011;39345;43.964;25.340;2023-04-19T14:47:41;13.98;;;4.82;;
43835;SDS011;39345;43.964;25.340;2023-04-19T14:50:08;8.88;;;4.88;;
43835;SDS011;39345;43.964;25.340;2023-04-19T14:52:38;8.18;;;5.18;;